sensor_id;sensor_type;location;lat;lon;timestamp;temperature;humidity
10728;DHT22;5415;59.322;18.246;2022-08-21T13:01:14;23.70;99.90
10728;DHT22;5415;59.322;18.246;2022-08-21T13:03:44;22.10;90.20
10728;DHT22;5415;59.322;18.246;2022-08-21T13:06:15;21.90;90.00
10728;DHT22;5415;59.322;18.246;2022-08-21T13:08:43;21.80;91.10
10728;DHT22;5415;59.322;18.246;2022-08-21T13:11:16;21.90;90.90
10728;DHT22;5415;59.322;18.246;2022-08-21T13:13:48;21.90;91.10
10728;DHT22;5415;59.322;18.246;2022-08-21T13:16:20;21.90;90.00
10728;DHT22;5415;59.322;18.246;2022-08-21T13:18:56;21.80;90.80
10728;DHT22;5415;59.322;18.246;2022-08-21T13:21:29;21.70;90.20
10728;DHT22;5415;59.322;18.246;2022-08-21T13:24:13;21.50;87.50
10728;DHT22;5415;59.322;18.246;2022-08-21T13:26:43;21.40;89.50
10728;DHT22;5415;59.322;18.246;2022-08-21T13:29:12;21.40;85.60
10728;DHT22;5415;59.322;18.246;2022-08-21T13:31:45;21.40;86.40
10728;DHT22;5415;59.322;18.246;2022-08-21T13:34:14;21.50;80.40
10728;DHT22;5415;59.322;18.246;2022-08-21T13:36:43;21.40;80.50
10728;DHT22;5415;59.322;18.246;2022-08-21T13:39:12;21.40;85.10
10728;DHT22;5415;59.322;18.246;2022-08-21T13:41:46;21.40;77.80
10728;DHT22;5415;59.322;18.246;2022-08-21T13:44:17;21.50;78.80
10728;DHT22;5415;59.322;18.246;2022-08-21T13:46:45;21.50;79.30
10728;DHT22;5415;59.322;18.246;2022-08-21T13:49:15;21.50;75.60
10728;DHT22;5415;59.322;18.246;2022-08-21T13:51:43;21.50;79.20
10728;DHT22;5415;59.322;18.246;2022-08-21T13:54:20;21.50;79.40
10728;DHT22;5415;59.322;18.246;2022-08-21T13:56:50;21.50;79.30
10728;DHT22;5415;59.322;18.246;2022-08-21T13:59:27;21.60;79.70
10728;DHT22;5415;59.322;18.246;2022-08-21T14:01:57;21.60;77.30
10728;DHT22;5415;59.322;18.246;2022-08-21T14:04:31;21.60;78.90
10728;DHT22;5415;59.322;18.246;2022-08-21T14:07:00;21.70;80.20
10728;DHT22;5415;59.322;18.246;2022-08-21T14:09:32;21.60;78.40
10728;DHT22;5415;59.322;18.246;2022-08-21T14:12:10;21.60;76.90
10728;DHT22;5415;59.322;18.246;2022-08-21T14:14:39;21.60;73.70
10728;DHT22;5415;59.322;18.246;2022-08-21T14:17:10;21.60;74.90
10728;DHT22;5415;59.322;18.246;2022-08-21T14:19:41;21.60;73.00
10728;DHT22;5415;59.322;18.246;2022-08-21T14:22:32;21.60;71.30
10728;DHT22;5415;59.322;18.246;2022-08-21T14:25:02;21.50;73.30
10728;DHT22;5415;59.322;18.246;2022-08-21T14:27:32;21.50;75.00
10728;DHT22;5415;59.322;18.246;2022-08-21T14:30:03;21.40;72.40
10728;DHT22;5415;59.322;18.246;2022-08-21T14:32:37;21.40;70.00
10728;DHT22;5415;59.322;18.246;2022-08-21T14:35:05;21.30;69.90
10728;DHT22;5415;59.322;18.246;2022-08-21T14:37:33;21.40;71.40
10728;DHT22;5415;59.322;18.246;2022-08-21T14:40:02;21.30;69.20
10728;DHT22;5415;59.322;18.246;2022-08-21T14:42:31;21.30;70.60
10728;DHT22;5415;59.322;18.246;2022-08-21T14:45:02;21.30;70.10
10728;DHT22;5415;59.322;18.246;2022-08-21T14:47:29;21.30;73.90
10728;DHT22;5415;59.322;18.246;2022-08-21T14:49:56;21.40;71.50
10728;DHT22;5415;59.322;18.246;2022-08-21T14:52:24;21.40;71.80
10728;DHT22;5415;59.322;18.246;2022-08-21T14:54:51;21.40;70.70
10728;DHT22;5415;59.322;18.246;2022-08-21T14:57:18;21.40;70.90
10728;DHT22;5415;59.322;18.246;2022-08-21T14:59:47;21.50;68.10
